Belmont, North Carolina
Current Conditions -  °F | °C
As of 9:52 AM on Saturday 20 Dec 2014 (Local Time) from KCLT Reporting Station
Light Rain Light Rain  
Wind Chill:   Ceiling: 3800
Heat Index:   Visibility: 10mi
Dew Point:   Wind: 6mph
Humidity: 73%   Direction: 60°ENE
Pressure: 30.26"   Gusts: NA
Location:  35.24°N, 81.04°W
Report Text: KCLT 201452Z 06005KT 10SM -RA OVC038 05/01 A3026 RMK AO2 RAE05B46 SLP247 P0000 60002 T00500006 51015
Loading
Personal Weather Stations






























Interactive Weather Map New forecast layout! Learn more

10-Day Weather Forecast

Advertisements
Track Severe Weather on mobile